Time;durP1;ratioP1;P1;durP2;ratioP2;P2;SDS_P1;SDS_P2;PMS_P1;PMS_P2;Temp;Humidity;BMP_temperature;BMP_pressure;BME280_temperature;BME280_humidity;BME280_pressure;Samples;Min_cycle;Max_cycle;Signal;HPM_P1;HPM_P2
2022/03/04 00:00:04;;;;;;;106.12;45.73;;;;;;;-0.24;76.84;101047.16;1665816;86;21069;-72
2022/03/04 00:02:32;;;;;;;109.05;46.33;;;;;;;-0.25;76.86;101054.20;1665237;86;21057;-72
2022/03/04 00:04:58;;;;;;;112.60;46.10;;;;;;;-0.28;76.87;101053.53;1665671;86;20921;-72
2022/03/04 00:07:24;;;;;;;107.90;44.15;;;;;;;-0.27;76.92;101065.68;1666041;86;21036;-72
2022/03/04 00:09:50;;;;;;;116.50;49.00;;;;;;;-0.26;76.94;101064.77;1665696;86;21060;-72
2022/03/04 00:12:16;;;;;;;110.97;47.40;;;;;;;-0.23;76.98;101063.28;1668348;84;21286;-72
2022/03/04 00:14:42;;;;;;;103.10;44.95;;;;;;;-0.25;76.99;101061.22;1694363;84;21072;-72
2022/03/04 00:17:09;;;;;;;103.45;44.38;;;;;;;-0.27;77.00;101057.82;1694504;84;21061;-72
2022/03/04 00:19:35;;;;;;;98.70;40.35;;;;;;;-0.27;77.03;101057.82;1694302;84;21008;-72
2022/03/04 00:22:02;;;;;;;101.35;40.10;;;;;;;-0.28;77.06;101056.16;1694487;84;21897;-72
2022/03/04 00:24:27;;;;;;;105.92;43.17;;;;;;;-0.29;77.08;101059.69;1694276;84;21016;-72
2022/03/04 00:26:53;;;;;;;90.03;43.65;;;;;;;-0.30;77.11;101051.45;1694274;84;21024;-72
2022/03/04 00:29:19;;;;;;;95.90;45.40;;;;;;;-0.31;77.13;101051.05;1694346;84;21555;-72
2022/03/04 00:31:46;;;;;;;105.72;46.95;;;;;;;-0.31;77.16;101055.84;1694390;84;21027;-72
2022/03/04 00:34:12;;;;;;;87.47;38.75;;;;;;;-0.31;77.20;101048.44;1694424;84;21166;-72
2022/03/04 00:36:39;;;;;;;85.47;38.38;;;;;;;-0.32;77.21;101050.70;1694439;84;21032;-72
2022/03/04 00:39:09;;;;;;;87.47;36.88;;;;;;;-0.33;77.22;101049.00;1694597;84;21529;-72
2022/03/04 00:41:35;;;;;;;88.22;38.00;;;;;;;-0.37;77.24;101048.78;1694278;84;21021;-72
2022/03/04 00:44:01;;;;;;;87.75;38.67;;;;;;;-0.37;77.28;101047.01;1694127;84;21483;-72
2022/03/04 00:46:27;;;;;;;72.08;32.05;;;;;;;-0.36;77.29;101052.64;1694284;84;21166;-72
2022/03/04 00:48:53;;;;;;;82.37;37.88;;;;;;;-0.36;77.31;101047.86;1694315;84;21017;-72
2022/03/04 00:51:19;;;;;;;101.30;44.67;;;;;;;-0.36;77.33;101054.41;1694127;84;21065;-72
2022/03/04 00:53:46;;;;;;;92.82;43.00;;;;;;;-0.36;77.36;101047.86;1694066;84;21600;-72
2022/03/04 00:56:12;;;;;;;89.55;44.33;;;;;;;-0.37;77.38;101038.30;1694142;84;21631;-72
2022/03/04 00:58:38;;;;;;;96.17;45.45;;;;;;;-0.39;77.40;101041.48;1693956;84;21980;-72
2022/03/04 01:01:05;;;;;;;94.20;45.33;;;;;;;-0.40;77.43;101029.31;1694148;84;21532;-72
2022/03/04 01:03:32;;;;;;;101.82;50.55;;;;;;;-0.43;77.45;101030.79;1694106;84;21053;-72
2022/03/04 01:06:00;;;;;;;100.20;51.53;;;;;;;-0.44;77.48;101029.94;1694041;84;21052;-72
2022/03/04 01:08:26;;;;;;;90.40;39.98;;;;;;;-0.43;77.50;101030.33;1694264;84;21041;-72
2022/03/04 01:10:52;;;;;;;87.67;38.63;;;;;;;-0.45;77.53;101032.17;1694160;84;21194;-71
2022/03/04 01:13:18;;;;;;;81.30;37.48;;;;;;;-0.48;77.56;101034.11;1697010;84;21060;-72
2022/03/04 01:15:44;;;;;;;76.47;34.60;;;;;;;-0.47;77.59;101047.60;1715208;82;21023;-71
2022/03/04 01:18:10;;;;;;;72.95;32.25;;;;;;;-0.44;77.62;101056.14;1748530;81;21042;-72
2022/03/04 01:20:37;;;;;;;73.72;31.80;;;;;;;-0.41;77.63;101045.95;1748546;82;21044;-72
2022/03/04 01:23:03;;;;;;;84.15;34.48;;;;;;;-0.39;77.67;101048.03;1748518;82;21101;-72
2022/03/04 01:25:29;;;;;;;73.62;34.18;;;;;;;-0.36;77.70;101063.13;1748447;81;21011;-72
2022/03/04 01:27:55;;;;;;;81.00;35.68;;;;;;;-0.34;77.73;101052.53;1748417;81;21002;-72
2022/03/04 01:30:21;;;;;;;92.17;41.60;;;;;;;-0.32;77.78;101054.16;1748541;82;21091;-72
2022/03/04 01:32:47;;;;;;;102.00;42.13;;;;;;;-0.31;77.81;101055.84;1748354;82;20993;-72
2022/03/04 01:35:13;;;;;;;97.10;39.15;;;;;;;-0.29;77.83;101048.75;1748671;82;21673;-72
2022/03/04 01:37:40;;;;;;;78.60;33.83;;;;;;;-0.27;77.86;101043.41;1748041;81;21547;-72
2022/03/04 01:40:07;;;;;;;73.50;32.88;;;;;;;-0.29;77.87;101050.06;1748301;82;21582;-72
2022/03/04 01:42:34;;;;;;;90.67;37.85;;;;;;;-0.30;77.85;101045.74;1748573;82;21559;-71
2022/03/04 01:45:00;;;;;;;78.92;34.60;;;;;;;-0.29;77.88;101053.14;1748357;82;21507;-72
2022/03/04 01:47:26;;;;;;;81.97;36.13;;;;;;;-0.28;77.90;101049.60;1748534;82;21868;-72
2022/03/04 01:49:52;;;;;;;95.15;39.78;;;;;;;-0.26;77.92;101051.66;1748329;82;20963;-72
2022/03/04 01:52:18;;;;;;;83.55;38.42;;;;;;;-0.23;77.94;101049.71;1725118;82;21043;-72
2022/03/04 01:54:44;;;;;;;85.57;40.03;;;;;;;-0.21;77.95;101050.45;1748039;82;20944;-72
2022/03/04 01:57:10;;;;;;;103.25;46.02;;;;;;;-0.20;77.99;101048.69;1748408;81;21058;-72
2022/03/04 01:59:37;;;;;;;96.82;41.15;;;;;;;-0.21;78.02;101044.40;1748424;82;21750;-72
2022/03/04 02:02:03;;;;;;;112.70;53.78;;;;;;;-0.20;78.04;101046.92;1748374;82;21031;-72
2022/03/04 02:04:29;;;;;;;114.15;51.02;;;;;;;-0.19;78.07;101033.35;1748604;82;20995;-71
2022/03/04 02:06:55;;;;;;;105.83;46.50;;;;;;;-0.18;78.08;101030.66;1748201;82;21011;-72
2022/03/04 02:09:21;;;;;;;75.95;36.13;;;;;;;-0.16;78.09;101047.59;1748463;81;21016;-72
2022/03/04 02:11:48;;;;;;;74.70;34.95;;;;;;;-0.17;78.10;101031.02;1748426;82;21133;-72
2022/03/04 02:14:14;;;;;;;70.55;32.55;;;;;;;-0.17;78.11;101031.02;1747794;82;21046;-71
2022/03/04 02:16:47;;;;;;;76.05;32.40;;;;;;;-0.16;78.11;101033.17;1748116;82;21078;-72
2022/03/04 02:19:13;;;;;;;79.50;35.35;;;;;;;-0.17;78.13;101026.23;1741511;82;21832;-72
2022/03/04 02:21:51;;;;;;;81.80;38.13;;;;;;;-0.20;78.14;101025.09;1747982;82;21468;-72
2022/03/04 02:24:18;;;;;;;79.32;39.33;;;;;;;-0.20;78.21;101025.95;1747817;82;21508;-72
2022/03/04 02:26:45;;;;;;;76.92;33.58;;;;;;;-0.18;78.23;101031.12;1748151;82;21012;-72
2022/03/04 02:29:12;;;;;;;72.85;35.43;;;;;;;-0.17;78.25;101022.30;1747879;82;21003;-72
2022/03/04 02:31:38;;;;;;;78.90;36.40;;;;;;;-0.16;78.26;101030.09;1748037;82;21015;-72
2022/03/04 02:34:04;;;;;;;76.65;35.85;;;;;;;-0.20;78.27;101025.09;1748069;82;21063;-72
2022/03/04 02:36:30;;;;;;;70.52;32.65;;;;;;;-0.22;78.28;101026.52;1747776;82;21135;-72
2022/03/04 02:38:56;;;;;;;73.30;32.25;;;;;;;-0.23;78.29;101033.14;1747959;82;20904;-72
2022/03/04 02:41:22;;;;;;;74.42;32.17;;;;;;;-0.25;78.31;101036.33;1748050;82;20983;-72
2022/03/04 02:43:48;;;;;;;67.40;32.55;;;;;;;-0.25;78.30;101045.50;1747981;82;21039;-72
2022/03/04 02:46:14;;;;;;;75.78;36.30;;;;;;;-0.24;78.31;101047.16;1747953;82;20998;-72
2022/03/04 02:48:40;;;;;;;80.55;37.80;;;;;;;-0.22;78.33;101047.94;1748127;82;21158;-72
2022/03/04 02:51:06;;;;;;;77.12;37.80;;;;;;;-0.22;78.35;101048.80;1747877;82;21014;-72
2022/03/04 02:53:32;;;;;;;82.15;36.53;;;;;;;-0.25;78.39;101045.50;1747830;81;21046;-72
2022/03/04 02:55:58;;;;;;;78.70;36.35;;;;;;;-0.30;78.39;101041.81;1747859;81;20912;-72
2022/03/04 02:58:24;;;;;;;78.28;36.20;;;;;;;-0.33;78.41;101041.14;1747534;82;20888;-72
2022/03/04 03:00:51;;;;;;;90.80;38.95;;;;;;;-0.34;78.42;101046.84;1748100;82;21359;-72
2022/03/04 03:03:17;;;;;;;80.28;36.90;;;;;;;-0.36;78.44;101042.62;1747673;82;21066;-71
2022/03/04 03:05:43;;;;;;;79.62;36.33;;;;;;;-0.39;78.45;101045.41;1748190;82;21051;-72
2022/03/04 03:08:09;;;;;;;77.30;34.25;;;;;;;-0.41;78.46;101044.63;1747625;81;20884;-72
2022/03/04 03:10:35;;;;;;;70.97;33.35;;;;;;;-0.41;78.46;101042.86;1748033;82;20936;-72
2022/03/04 03:13:01;;;;;;;75.08;35.33;;;;;;;-0.39;78.47;101041.48;1747935;81;21055;-72
2022/03/04 03:15:27;;;;;;;72.65;33.90;;;;;;;-0.41;78.48;101038.09;1744643;81;21008;-72
2022/03/04 03:17:54;;;;;;;89.87;40.55;;;;;;;-0.38;78.51;101040.53;1745166;82;21042;-72
2022/03/04 03:20:20;;;;;;;92.37;41.37;;;;;;;-0.38;78.51;101041.84;1744766;82;20999;-72
2022/03/04 03:22:45;;;;;;;87.82;40.03;;;;;;;-0.38;78.53;101036.60;1745048;82;20999;-72
2022/03/04 03:25:12;;;;;;;97.15;44.03;;;;;;;-0.37;78.55;101042.23;1745054;82;21123;-72
2022/03/04 03:27:39;;;;;;;91.57;44.77;;;;;;;-0.33;78.60;101042.45;1745086;82;21015;-72
2022/03/04 03:30:06;;;;;;;78.07;38.33;;;;;;;-0.33;78.62;101040.67;1744787;82;21023;-72
2022/03/04 03:32:32;;;;;;;92.80;41.48;;;;;;;-0.30;78.66;101043.58;1744820;82;21051;-72
2022/03/04 03:34:58;;;;;;;76.80;36.90;;;;;;;-0.29;78.69;101043.97;1745120;82;21031;-72
2022/03/04 03:37:24;;;;;;;72.82;35.23;;;;;;;-0.30;78.71;101034.41;1745118;82;21067;-71
2022/03/04 03:39:51;;;;;;;65.60;33.80;;;;;;;-0.30;78.72;101043.13;1745068;82;21063;-72
2022/03/04 03:42:17;;;;;;;67.95;32.55;;;;;;;-0.31;78.71;101040.57;1744950;82;21064;-72
2022/03/04 03:44:43;;;;;;;73.57;30.95;;;;;;;-0.33;78.73;101043.75;1745158;82;21063;-72
2022/03/04 03:47:09;;;;;;;71.80;34.92;;;;;;;-0.33;78.74;101045.92;1745090;82;21011;-72
2022/03/04 03:49:38;;;;;;;75.60;35.52;;;;;;;-0.34;78.75;101049.92;1745027;82;21051;-72
2022/03/04 03:52:05;;;;;;;83.85;37.80;;;;;;;-0.33;78.80;101051.62;1744930;82;21000;-72
2022/03/04 03:54:31;;;;;;;88.22;40.43;;;;;;;-0.35;78.80;101052.19;1744979;82;21423;-72
2022/03/04 03:56:57;;;;;;;85.38;39.48;;;;;;;-0.35;78.83;101053.49;1744787;82;21009;-72
2022/03/04 03:59:23;;;;;;;82.37;38.27;;;;;;;-0.34;78.84;101057.78;1744980;82;20995;-72
2022/03/04 04:01:49;;;;;;;81.90;38.58;;;;;;;-0.35;78.87;101053.49;1745014;82;21174;-72
2022/03/04 04:04:17;;;;;;;76.30;34.65;;;;;;;-0.36;78.89;101057.88;1744761;82;21019;-72
2022/03/04 04:06:43;;;;;;;81.53;36.50;;;;;;;-0.35;78.92;101057.42;1744955;82;21569;-72
2022/03/04 04:09:09;;;;;;;77.97;35.50;;;;;;;-0.37;78.93;101056.18;1744379;81;21055;-72
2022/03/04 04:11:36;;;;;;;84.62;38.28;;;;;;;-0.36;78.94;101060.96;1744827;82;21058;-72
2022/03/04 04:14:07;;;;;;;80.55;41.08;;;;;;;-0.35;78.97;101060.04;1745054;81;21137;-72
2022/03/04 04:16:33;;;;;;;92.72;42.35;;;;;;;-0.37;79.00;101060.11;1744935;82;21066;-72
2022/03/04 04:18:59;;;;;;;99.32;44.00;;;;;;;-0.39;79.00;101054.59;1745105;82;21038;-72
2022/03/04 04:21:25;;;;;;;88.20;39.60;;;;;;;-0.39;79.01;101055.89;1745052;82;21068;-72
2022/03/04 04:23:53;;;;;;;76.47;37.40;;;;;;;-0.39;79.05;101056.75;1745060;82;21075;-72
2022/03/04 04:26:19;;;;;;;80.03;36.38;;;;;;;-0.39;79.06;101059.83;1745006;82;21163;-72
2022/03/04 04:28:45;;;;;;;80.03;35.03;;;;;;;-0.41;79.05;101055.11;1744638;82;21055;-72
2022/03/04 04:31:11;;;;;;;73.57;33.75;;;;;;;-0.43;79.07;101052.59;1745058;82;21520;-72
2022/03/04 04:33:37;;;;;;;78.62;35.78;;;;;;;-0.43;79.09;101042.58;1744475;82;21623;-71
2022/03/04 04:36:04;;;;;;;73.28;36.05;;;;;;;-0.40;79.11;101044.56;1744849;82;21110;-72
2022/03/04 04:38:30;;;;;;;75.80;35.90;;;;;;;-0.35;79.13;101054.80;1744862;82;21517;-72
2022/03/04 04:40:57;;;;;;;80.38;37.53;;;;;;;-0.24;79.17;101051.09;1745055;82;20868;-72
2022/03/04 04:43:23;;;;;;;88.25;40.40;;;;;;;-0.11;79.17;101048.19;1745249;82;21007;-72
2022/03/04 04:45:51;;;;;;;90.87;44.30;;;;;;;-0.08;79.20;101043.62;1744698;82;21036;-72
2022/03/04 04:48:17;;;;;;;104.75;48.83;;;;;;;-0.09;79.24;101045.00;1745037;82;21404;-72
2022/03/04 04:50:43;;;;;;;91.82;43.68;;;;;;;-0.09;79.29;101044.55;1745143;82;21957;-72
2022/03/04 04:53:09;;;;;;;84.10;40.58;;;;;;;-0.09;79.34;101047.63;1744932;82;21472;-72
2022/03/04 04:55:36;;;;;;;76.20;38.25;;;;;;;-0.10;79.36;101048.55;1744810;82;21509;-71
2022/03/04 04:58:02;;;;;;;93.05;42.75;;;;;;;-0.12;79.38;101047.34;1744698;82;21020;-71
2022/03/04 05:00:28;;;;;;;86.78;38.80;;;;;;;-0.13;79.38;101047.41;1744985;82;21007;-71
2022/03/04 05:02:54;;;;;;;82.70;37.90;;;;;;;-0.14;79.37;101054.42;1744846;82;22140;-71
2022/03/04 05:05:20;;;;;;;84.77;37.90;;;;;;;-0.16;79.38;101055.45;1744708;82;20999;-72
2022/03/04 05:07:46;;;;;;;78.95;36.63;;;;;;;-0.15;79.38;101046.67;1744924;82;21030;-72
2022/03/04 05:10:12;;;;;;;90.92;40.78;;;;;;;-0.10;79.38;101053.79;1744772;81;21488;-72
2022/03/04 05:12:39;;;;;;;89.62;44.67;;;;;;;-0.10;79.40;101051.16;1744666;82;21507;-72
2022/03/04 05:15:07;;;;;;;97.92;44.98;;;;;;;-0.13;79.41;101057.90;1744584;82;21805;-72
2022/03/04 05:17:33;;;;;;;143.28;65.25;;;;;;;-0.13;79.43;101057.90;1693551;83;21023;-72
2022/03/04 05:19:59;;;;;;;148.02;66.75;;;;;;;-0.14;79.46;101056.23;1724637;83;20903;-72
2022/03/04 05:22:25;;;;;;;133.00;58.10;;;;;;;-0.13;79.48;101063.14;1724896;82;21097;-72
2022/03/04 05:24:51;;;;;;;101.92;46.60;;;;;;;-0.17;79.49;101061.62;1724763;83;21040;-72
2022/03/04 05:27:17;;;;;;;101.72;44.85;;;;;;;-0.21;79.51;101058.81;1724750;83;21196;-72
2022/03/04 05:29:44;;;;;;;92.55;41.08;;;;;;;-0.22;79.51;101058.42;1724775;83;21064;-72
2022/03/04 05:32:10;;;;;;;105.17;47.60;;;;;;;-0.25;79.52;101061.22;1724824;83;21481;-72
2022/03/04 05:34:41;;;;;;;144.28;65.97;;;;;;;-0.24;79.54;101065.51;1724577;83;21549;-72
2022/03/04 05:37:05;;;;;;;94.45;38.90;;;;;;;-0.22;79.54;101069.75;1723123;82;21068;-72
2022/03/04 05:39:31;;;;;;;74.12;32.58;;;;;;;-0.20;79.54;101068.34;1724916;83;21485;-72
2022/03/04 05:41:57;;;;;;;68.80;32.83;;;;;;;-0.18;79.55;101070.44;1724650;83;21599;-72
2022/03/04 05:44:23;;;;;;;68.12;30.70;;;;;;;-0.19;79.57;101068.73;1724871;83;21072;-72
2022/03/04 05:46:49;;;;;;;64.72;30.77;;;;;;;-0.19;79.57;101069.58;1724908;83;20976;-72
2022/03/04 05:49:15;;;;;;;73.02;33.30;;;;;;;-0.20;79.58;101076.20;1725055;83;21021;-72
2022/03/04 05:51:41;;;;;;;93.33;39.23;;;;;;;-0.21;79.59;101078.47;1724926;83;21585;-72
2022/03/04 05:54:07;;;;;;;132.75;55.12;;;;;;;-0.21;79.59;101081.91;1725226;83;21591;-72
2022/03/04 05:56:33;;;;;;;122.22;52.17;;;;;;;-0.21;79.63;101078.47;1724784;83;21083;-72
2022/03/04 05:58:59;;;;;;;118.42;50.25;;;;;;;-0.19;79.62;101088.39;1725083;83;21017;-72
2022/03/04 06:01:25;;;;;;;137.25;46.18;;;;;;;-0.17;79.64;101089.98;1725025;83;21028;-71
2022/03/04 06:03:51;;;;;;;93.60;42.62;;;;;;;-0.14;79.63;101091.13;1725058;83;21155;-72
2022/03/04 06:06:17;;;;;;;81.87;36.15;;;;;;;-0.11;79.66;101096.68;1724905;83;21062;-72
2022/03/04 06:08:43;;;;;;;59.30;26.68;;;;;;;-0.05;79.67;101102.42;1724877;83;21742;-72
2022/03/04 06:11:10;;;;;;;56.77;26.45;;;;;;;-0.02;79.68;101108.80;1724922;83;21510;-72
2022/03/04 06:13:37;;;;;;;65.37;29.37;;;;;;;0.03;79.70;101108.56;1724780;83;21564;-72
2022/03/04 06:16:04;;;;;;;66.20;32.17;;;;;;;0.07;79.74;101111.36;1695758;83;21528;-72
2022/03/04 06:18:30;;;;;;;70.92;33.58;;;;;;;0.10;79.75;101113.84;1696010;83;21033;-72
2022/03/04 06:20:55;;;;;;;66.37;32.95;;;;;;;0.10;79.79;101121.70;1720666;83;20933;-72
2022/03/04 06:23:22;;;;;;;71.92;31.97;;;;;;;0.11;79.80;101124.69;1720844;83;20905;-72
2022/03/04 06:25:49;;;;;;;70.32;33.85;;;;;;;0.14;79.83;101125.81;1720392;83;21059;-72
2022/03/04 06:28:15;;;;;;;85.55;36.10;;;;;;;0.19;79.85;101134.29;1720871;83;21596;-72
2022/03/04 06:30:41;;;;;;;71.45;33.38;;;;;;;0.22;79.86;101132.80;1720265;83;21477;-72
2022/03/04 06:35:53;;;;;;;62.50;28.90;;;;;;;0.29;79.88;101133.30;1720802;83;21005;-73
2022/03/04 06:38:19;;;;;;;81.22;39.38;;;;;;;0.33;79.91;101135.67;1696073;83;21099;-73
2022/03/04 06:40:47;;;;;;;51.45;25.90;;;;;;;0.38;79.93;101136.27;1720749;83;21535;-73
2022/03/04 06:43:13;;;;;;;61.60;27.35;;;;;;;0.43;79.92;101135.52;1720773;83;21013;-73
2022/03/04 06:45:45;;;;;;;57.05;26.82;;;;;;;0.48;79.95;101136.12;1720798;83;21115;-73
2022/03/04 06:48:12;;;;;;;63.55;28.62;;;;;;;0.55;79.95;101139.69;1703285;82;21517;-73
2022/03/04 06:50:38;;;;;;;65.10;30.68;;;;;;;0.61;79.97;101139.33;1705289;83;21039;-73
2022/03/04 06:53:06;;;;;;;78.65;34.08;;;;;;;0.68;79.99;101143.29;1697590;84;21155;-73
2022/03/04 06:55:32;;;;;;;64.87;29.90;;;;;;;0.75;80.01;101149.41;1673466;85;21620;-73
2022/03/04 06:57:58;;;;;;;69.17;29.50;;;;;;;0.85;79.99;101147.09;1673506;85;21641;-73
2022/03/04 07:00:25;;;;;;;58.45;25.32;;;;;;;0.90;80.01;101151.61;1672749;85;21496;-74
2022/03/04 07:02:52;;;;;;;50.55;23.35;;;;;;;0.93;79.95;101154.06;1672914;85;21041;-73
2022/03/04 07:05:21;;;;;;;55.33;25.92;;;;;;;0.98;79.97;101148.08;1673568;85;21154;-73
2022/03/04 07:07:46;;;;;;;46.02;22.22;;;;;;;1.03;79.96;101149.95;1671442;85;21283;-73
2022/03/04 07:10:12;;;;;;;48.00;22.87;;;;;;;1.06;79.94;101150.22;1696808;83;21069;-73
2022/03/04 07:12:38;;;;;;;41.73;21.42;;;;;;;1.09;79.95;101154.83;1694363;84;21055;-73
2022/03/04 07:15:05;;;;;;;49.75;22.37;;;;;;;1.13;79.95;101156.34;1697106;83;21854;-73
2022/03/04 07:17:31;;;;;;;42.65;21.33;;;;;;;1.19;79.95;101150.75;1720822;83;21133;-73
2022/03/04 07:19:58;;;;;;;44.88;23.75;;;;;;;1.22;79.92;101151.87;1719489;83;21058;-73
2022/03/04 07:22:24;;;;;;;45.50;22.60;;;;;;;1.24;79.95;101149.13;1693538;84;21054;-72
2022/03/04 07:24:50;;;;;;;50.17;25.43;;;;;;;1.22;79.94;101153.19;1683662;83;20967;-73
2022/03/04 07:27:16;;;;;;;53.17;25.35;;;;;;;1.27;79.90;101158.98;1705260;83;21015;-73
2022/03/04 07:29:42;;;;;;;48.08;23.80;;;;;;;1.36;79.87;101159.77;1716914;83;21094;-72
2022/03/04 07:32:08;;;;;;;47.05;24.87;;;;;;;1.41;79.87;101159.00;1706833;83;21077;-72
2022/03/04 07:34:34;;;;;;;49.18;21.90;;;;;;;1.46;79.81;101154.33;1709844;83;21092;-72
2022/03/04 07:37:00;;;;;;;50.52;21.45;;;;;;;1.57;79.79;101164.19;1706654;84;21018;-73
2022/03/04 07:39:26;;;;;;;47.35;23.20;;;;;;;1.60;79.73;101163.14;1703255;84;21133;-73
2022/03/04 07:41:52;;;;;;;49.42;21.60;;;;;;;1.61;79.69;101168.78;1707312;84;21158;-72
2022/03/04 07:44:18;;;;;;;48.75;21.75;;;;;;;1.63;79.65;101173.00;1707121;84;21519;-72
2022/03/04 07:46:45;;;;;;;34.88;15.50;;;;;;;1.68;79.60;101174.89;1707136;84;21110;-72
2022/03/04 07:49:11;;;;;;;42.78;17.87;;;;;;;1.74;79.59;101184.17;1706326;84;21038;-73
2022/03/04 07:51:37;;;;;;;45.58;19.48;;;;;;;1.99;79.62;101179.08;1706745;84;21066;-73
2022/03/04 07:54:03;;;;;;;37.95;15.53;;;;;;;2.14;79.51;101183.39;1706916;84;21169;-73
2022/03/04 07:56:29;;;;;;;36.60;17.75;;;;;;;2.19;79.47;101190.97;1706743;84;21078;-73
2022/03/04 07:58:55;;;;;;;33.60;14.65;;;;;;;2.21;79.46;101188.64;1707014;84;21164;-74
2022/03/04 08:01:21;;;;;;;37.03;15.98;;;;;;;2.18;79.43;101187.98;1706899;84;21018;-73
2022/03/04 08:03:47;;;;;;;31.77;17.15;;;;;;;2.16;79.36;101194.65;1707136;84;21015;-74
2022/03/04 08:06:14;;;;;;;33.95;18.50;;;;;;;2.19;79.30;101194.45;1706378;84;21146;-74
2022/03/04 08:08:40;;;;;;;33.55;15.15;;;;;;;2.27;79.26;101197.45;1749663;81;21050;-74
2022/03/04 08:11:06;;;;;;;23.10;10.70;;;;;;;2.32;79.21;101195.34;1737673;82;21115;-73
2022/03/04 08:13:34;;;;;;;31.17;13.55;;;;;;;2.30;79.15;101205.14;1719048;83;21027;-73
2022/03/04 08:16:01;;;;;;;37.35;16.40;;;;;;;2.21;79.07;101205.73;1669988;84;21038;-74
2022/03/04 08:18:27;;;;;;;26.82;11.45;;;;;;;2.22;79.06;101208.72;1682340;84;21135;-75
2022/03/04 08:20:53;;;;;;;43.00;19.10;;;;;;;2.21;78.96;101208.38;1674638;84;21078;-75
2022/03/04 08:23:19;;;;;;;39.33;17.70;;;;;;;2.21;78.91;101213.63;1681683;84;21068;-75
2022/03/04 08:25:45;;;;;;;24.63;12.43;;;;;;;2.28;78.85;101206.19;1696922;84;21152;-75
2022/03/04 08:28:11;;;;;;;37.45;15.25;;;;;;;2.38;78.80;101209.45;1679348;83;21023;-74
2022/03/04 08:30:37;;;;;;;22.10;9.78;;;;;;;2.41;78.75;101204.46;1676919;84;21164;-74
2022/03/04 08:33:03;;;;;;;12.82;6.95;;;;;;;2.48;78.73;101211.88;1683104;84;20939;-73
2022/03/04 08:35:29;;;;;;;13.30;5.78;;;;;;;2.54;78.72;101214.56;1669361;84;21115;-73
2022/03/04 08:37:55;;;;;;;13.22;5.12;;;;;;;2.48;78.64;101210.55;1673030;84;21468;-73
2022/03/04 08:40:22;;;;;;;21.20;8.40;;;;;;;2.46;78.64;101212.42;1682781;84;21110;-73
2022/03/04 08:42:48;;;;;;;17.05;6.25;;;;;;;2.50;78.59;101213.06;1677268;84;21094;-73
2022/03/04 08:45:14;;;;;;;10.28;5.15;;;;;;;2.60;78.51;101219.92;1679819;84;21038;-73
2022/03/04 08:47:43;;;;;;;22.95;6.15;;;;;;;2.64;78.43;101221.42;1668089;84;22306;-73
2022/03/04 08:50:09;;;;;;;11.08;5.20;;;;;;;2.59;78.38;101222.18;1663737;84;21059;-70
2022/03/04 08:52:35;;;;;;;40.70;21.17;;;;;;;2.51;78.31;101230.56;1680986;84;21120;-69
2022/03/04 08:55:03;;;;;;;11.08;5.47;;;;;;;2.44;78.25;101231.43;1693476;84;21345;-71
2022/03/04 08:57:31;;;;;;;10.32;5.47;;;;;;;2.47;78.18;101225.11;1691843;84;21098;-71
2022/03/04 08:59:57;;;;;;;7.25;4.03;;;;;;;2.45;78.12;101241.03;1702652;84;21602;-71
2022/03/04 09:02:23;;;;;;;5.47;3.30;;;;;;;2.41;78.06;101238.20;1683944;84;21553;-70
2022/03/04 09:04:50;;;;;;;8.23;4.05;;;;;;;2.44;78.00;101239.33;1681009;84;21050;-70
2022/03/04 09:07:16;;;;;;;10.70;4.72;;;;;;;2.43;77.97;101251.25;1680604;85;21540;-71
2022/03/04 09:09:43;;;;;;;17.65;6.40;;;;;;;2.38;77.92;101244.98;1679646;84;21058;-70
2022/03/04 09:12:11;;;;;;;12.73;6.80;;;;;;;2.34;77.85;101251.38;1695863;84;21081;-70
2022/03/04 09:14:37;;;;;;;16.23;6.28;;;;;;;2.29;77.79;101252.12;1679911;84;21051;-70
2022/03/04 09:17:04;;;;;;;8.33;5.22;;;;;;;2.24;77.70;101254.22;1708713;83;21125;-70
2022/03/04 09:19:34;;;;;;;10.53;6.00;;;;;;;2.17;77.64;101255.55;1705974;83;21170;-70
2022/03/04 09:21:57;;;;;;;9.75;5.08;;;;;;;2.12;77.58;101256.28;1699270;84;21050;-70
2022/03/04 09:24:23;;;;;;;10.07;4.10;;;;;;;2.12;77.52;101249.70;1700479;84;20947;-70
2022/03/04 09:26:49;;;;;;;11.43;4.92;;;;;;;2.15;77.49;101256.09;1700227;84;20876;-70
2022/03/04 09:29:15;;;;;;;10.08;5.42;;;;;;;2.15;77.44;101256.09;1700550;84;20931;-70
2022/03/04 09:31:41;;;;;;;13.80;5.83;;;;;;;2.15;77.42;101254.77;1700606;84;21151;-70
2022/03/04 09:34:07;;;;;;;16.80;7.12;;;;;;;2.19;77.38;101256.75;1700632;84;20923;-70
2022/03/04 09:36:33;;;;;;;14.73;5.78;;;;;;;2.24;77.34;101255.53;1700256;84;21802;-70
2022/03/04 09:38:59;;;;;;;8.83;5.15;;;;;;;2.31;77.35;101254.21;1718461;82;21640;-70
2022/03/04 09:41:26;;;;;;;10.55;5.62;;;;;;;2.41;77.29;101255.31;1720058;82;21058;-70
2022/03/04 09:43:54;;;;;;;9.43;4.22;;;;;;;2.47;77.28;101254.92;1707726;82;21158;-70
2022/03/04 09:46:21;;;;;;;17.60;5.15;;;;;;;2.53;77.23;101255.02;1709024;83;21058;-70
2022/03/04 09:48:51;;;;;;;10.95;4.83;;;;;;;2.50;77.16;101259.98;1705959;83;21033;-70
2022/03/04 09:51:17;;;;;;;6.30;3.95;;;;;;;2.47;77.10;101265.45;1704006;83;21062;-70
2022/03/04 09:53:44;;;;;;;73.30;28.47;;;;;;;2.45;77.07;101262.08;1708909;83;21046;-70
2022/03/04 09:56:10;;;;;;;95.35;36.45;;;;;;;2.45;77.01;101265.19;1709836;83;21164;-69
2022/03/04 09:58:39;;;;;;;58.08;24.98;;;;;;;2.43;76.95;101264.41;1706619;83;21627;-69
2022/03/04 10:01:14;;;;;;;80.37;37.97;;;;;;;2.44;76.88;101263.02;1696064;83;21532;-69
2022/03/04 10:03:50;;;;;;;83.05;33.73;;;;;;;2.43;76.85;101265.27;1709417;83;20996;-69
2022/03/04 10:06:17;;;;;;;25.90;10.75;;;;;;;2.43;76.79;101254.73;1707947;83;21117;-70
2022/03/04 10:08:50;;;;;;;17.25;7.92;;;;;;;2.44;76.75;101261.70;1709474;82;21146;-69
2022/03/04 10:11:31;;;;;;;22.85;8.80;;;;;;;2.39;76.70;101267.71;1708785;83;21034;-69
2022/03/04 10:14:03;;;;;;;36.48;14.98;;;;;;;2.30;76.60;101259.55;1708765;83;21042;-68
2022/03/04 10:16:34;;;;;;;25.30;11.28;;;;;;;2.30;76.56;101268.30;1703568;82;21039;-68
2022/03/04 10:19:19;;;;;;;29.55;13.68;;;;;;;2.33;76.53;101264.16;1703879;83;21008;-68
2022/03/04 10:21:58;;;;;;;36.15;13.88;;;;;;;2.34;76.56;101265.00;1699991;83;21174;-69
2022/03/04 10:24:37;;;;;;;31.60;10.25;;;;;;;2.39;76.58;101262.95;1698217;84;21014;-69
2022/03/04 10:27:12;;;;;;;26.73;9.20;;;;;;;2.46;76.59;101261.12;1709940;82;21102;-68
2022/03/04 10:29:44;;;;;;;28.67;13.48;;;;;;;2.50;76.61;101259.98;1703635;82;21519;-69
2022/03/04 10:32:19;;;;;;;25.70;13.88;;;;;;;2.45;76.59;101262.08;1673791;84;21090;-69
2022/03/04 10:34:55;;;;;;;32.05;15.43;;;;;;;2.24;76.57;101263.43;1724227;83;21155;-68
2022/03/04 10:37:42;;;;;;;26.25;11.35;;;;;;;2.12;76.59;101266.81;1693918;83;21077;-70
2022/03/04 10:40:18;;;;;;;21.50;11.05;;;;;;;2.09;76.61;101268.31;1696093;83;21073;-69
2022/03/04 10:43:05;;;;;;;20.90;10.75;;;;;;;2.08;76.64;101269.72;1696759;83;21628;-69
2022/03/04 10:45:34;;;;;;;41.08;23.02;;;;;;;2.04;76.68;101266.45;1693121;83;21050;-69
2022/03/04 10:48:10;;;;;;;35.68;18.98;;;;;;;2.06;76.68;101264.56;1692326;84;21564;-69
2022/03/04 10:50:40;;;;;;;33.38;16.75;;;;;;;2.09;76.76;101253.84;1687489;84;21013;-69
2022/03/04 10:53:16;;;;;;;40.92;20.50;;;;;;;2.17;76.83;101258.17;1657427;84;21106;-69
2022/03/04 10:56:02;;;;;;;57.65;28.40;;;;;;;2.25;76.88;101259.83;1712092;82;21015;-69
2022/03/04 10:58:37;;;;;;;37.98;21.15;;;;;;;2.35;76.96;101255.71;1719735;82;21057;-69
2022/03/04 11:01:08;;;;;;;39.60;20.25;;;;;;;2.44;77.02;101255.13;1687341;84;21213;-69
2022/03/04 11:03:34;;;;;;;26.77;15.43;;;;;;;2.50;77.05;101252.09;1682201;84;21132;-70
2022/03/04 11:06:06;;;;;;;32.70;15.85;;;;;;;2.53;77.09;101254.52;1712239;82;21015;-70
2022/03/04 11:08:32;;;;;;;43.35;20.82;;;;;;;2.47;77.14;101260.19;1692856;82;21140;-69
2022/03/04 11:10:58;;;;;;;34.90;17.02;;;;;;;2.44;77.16;101257.75;1695407;84;21133;-70
2022/03/04 11:13:24;;;;;;;26.17;12.18;;;;;;;2.51;77.23;101259.05;1694493;84;21071;-69
2022/03/04 11:15:51;;;;;;;22.20;11.10;;;;;;;2.60;77.25;101258.10;1689859;84;21076;-69